sensor_id;sensor_type;location;lat;lon;timestamp;pressure;altitude;pressure_sealevel;temperature;humidity
48404;BME280;34202;52.536;6.042;2023-12-22T00:04:35;100040.95;;;6.21;100.00
48404;BME280;34202;52.536;6.042;2023-12-22T00:09:35;100064.08;;;6.18;100.00
48404;BME280;34202;52.536;6.042;2023-12-22T00:14:36;100068.02;;;6.16;100.00
48404;BME280;34202;52.536;6.042;2023-12-22T00:19:37;100077.02;;;6.16;100.00
48404;BME280;34202;52.536;6.042;2023-12-22T00:24:37;100088.92;;;6.16;100.00
48404;BME280;34202;52.536;6.042;2023-12-22T00:29:39;100101.21;;;6.16;100.00
48404;BME280;34202;52.536;6.042;2023-12-22T00:34:39;100094.63;;;6.15;100.00
48404;BME280;34202;52.536;6.042;2023-12-22T00:39:39;100090.81;;;6.15;100.00
48404;BME280;34202;52.536;6.042;2023-12-22T00:44:40;100099.27;;;6.15;100.00
48404;BME280;34202;52.536;6.042;2023-12-22T00:49:40;100107.77;;;6.18;100.00
48404;BME280;34202;52.536;6.042;2023-12-22T00:54:40;100107.27;;;6.18;100.00
48404;BME280;34202;52.536;6.042;2023-12-22T00:59:41;100118.34;;;6.18;100.00
48404;BME280;34202;52.536;6.042;2023-12-22T01:04:47;100109.18;;;6.19;100.00
48404;BME280;34202;52.536;6.042;2023-12-22T01:09:48;100104.17;;;6.20;100.00
48404;BME280;34202;52.536;6.042;2023-12-22T01:14:48;100101.07;;;6.20;100.00
48404;BME280;34202;52.536;6.042;2023-12-22T01:19:52;100102.81;;;6.21;100.00
48404;BME280;34202;52.536;6.042;2023-12-22T01:24:52;100110.95;;;6.23;100.00
48404;BME280;34202;52.536;6.042;2023-12-22T01:29:52;100109.41;;;6.24;100.00
48404;BME280;34202;52.536;6.042;2023-12-22T01:34:53;100119.46;;;6.26;100.00
48404;BME280;34202;52.536;6.042;2023-12-22T01:39:53;100126.74;;;6.27;100.00
48404;BME280;34202;52.536;6.042;2023-12-22T01:44:54;100144.91;;;6.30;100.00
48404;BME280;34202;52.536;6.042;2023-12-22T01:49:55;100176.73;;;6.19;100.00
48404;BME280;34202;52.536;6.042;2023-12-22T01:54:55;100174.32;;;6.07;100.00
48404;BME280;34202;52.536;6.042;2023-12-22T01:59:56;100174.89;;;5.99;100.00
48404;BME280;34202;52.536;6.042;2023-12-22T02:04:58;100181.36;;;5.83;100.00
48404;BME280;34202;52.536;6.042;2023-12-22T02:09:59;100176.42;;;5.65;100.00
48404;BME280;34202;52.536;6.042;2023-12-22T02:14:59;100176.33;;;5.49;100.00
48404;BME280;34202;52.536;6.042;2023-12-22T02:20:00;100162.85;;;5.37;100.00
48404;BME280;34202;52.536;6.042;2023-12-22T02:25:01;100168.93;;;5.31;100.00
48404;BME280;34202;52.536;6.042;2023-12-22T02:30:14;100164.73;;;5.26;100.00
48404;BME280;34202;52.536;6.042;2023-12-22T02:35:23;100160.18;;;5.23;100.00
48404;BME280;34202;52.536;6.042;2023-12-22T02:40:24;100151.77;;;5.25;100.00
48404;BME280;34202;52.536;6.042;2023-12-22T02:45:25;100154.25;;;5.29;100.00
48404;BME280;34202;52.536;6.042;2023-12-22T02:50:25;100150.15;;;5.32;100.00
48404;BME280;34202;52.536;6.042;2023-12-22T02:55:26;100147.23;;;5.33;100.00
48404;BME280;34202;52.536;6.042;2023-12-22T03:00:26;100147.05;;;5.31;100.00
48404;BME280;34202;52.536;6.042;2023-12-22T03:05:26;100135.31;;;5.31;100.00
48404;BME280;34202;52.536;6.042;2023-12-22T03:10:29;100154.70;;;5.36;100.00
48404;BME280;34202;52.536;6.042;2023-12-22T03:15:30;100157.58;;;5.42;100.00
48404;BME280;34202;52.536;6.042;2023-12-22T03:20:30;100171.83;;;5.48;100.00
48404;BME280;34202;52.536;6.042;2023-12-22T03:25:30;100164.39;;;5.48;100.00
48404;BME280;34202;52.536;6.042;2023-12-22T03:30:31;100171.08;;;5.45;100.00
48404;BME280;34202;52.536;6.042;2023-12-22T03:35:31;100173.41;;;5.40;100.00
48404;BME280;34202;52.536;6.042;2023-12-22T03:40:32;100165.69;;;5.32;100.00
48404;BME280;34202;52.536;6.042;2023-12-22T03:45:32;100177.63;;;5.24;100.00
48404;BME280;34202;52.536;6.042;2023-12-22T03:50:33;100179.10;;;5.19;100.00
48404;BME280;34202;52.536;6.042;2023-12-22T03:55:33;100168.50;;;5.15;100.00
48404;BME280;34202;52.536;6.042;2023-12-22T04:00:33;100153.77;;;5.11;100.00
48404;BME280;34202;52.536;6.042;2023-12-22T04:05:34;100166.47;;;5.08;100.00
48404;BME280;34202;52.536;6.042;2023-12-22T04:10:35;100173.16;;;5.06;100.00
48404;BME280;34202;52.536;6.042;2023-12-22T04:15:35;100175.11;;;5.09;100.00
48404;BME280;34202;52.536;6.042;2023-12-22T04:20:36;100173.57;;;5.19;100.00
48404;BME280;34202;52.536;6.042;2023-12-22T04:25:36;100188.94;;;5.30;100.00
48404;BME280;34202;52.536;6.042;2023-12-22T04:30:36;100200.62;;;5.37;100.00
48404;BME280;34202;52.536;6.042;2023-12-22T04:35:37;100201.59;;;5.42;100.00
48404;BME280;34202;52.536;6.042;2023-12-22T04:40:37;100195.48;;;5.48;100.00
48404;BME280;34202;52.536;6.042;2023-12-22T04:45:38;100199.69;;;5.53;100.00
48404;BME280;34202;52.536;6.042;2023-12-22T04:50:38;100217.71;;;5.57;100.00
48404;BME280;34202;52.536;6.042;2023-12-22T04:55:39;100210.88;;;5.61;100.00
48404;BME280;34202;52.536;6.042;2023-12-22T05:00:39;100198.88;;;5.66;100.00
48404;BME280;34202;52.536;6.042;2023-12-22T05:05:39;100205.16;;;5.69;100.00
48404;BME280;34202;52.536;6.042;2023-12-22T05:10:40;100218.63;;;5.70;100.00
48404;BME280;34202;52.536;6.042;2023-12-22T05:15:40;100212.64;;;5.73;100.00
48404;BME280;34202;52.536;6.042;2023-12-22T05:20:40;100219.23;;;5.75;100.00
48404;BME280;34202;52.536;6.042;2023-12-22T05:25:41;100229.63;;;5.77;100.00
48404;BME280;34202;52.536;6.042;2023-12-22T05:30:41;100222.73;;;5.79;100.00
48404;BME280;34202;52.536;6.042;2023-12-22T05:35:41;100234.02;;;5.81;100.00
48404;BME280;34202;52.536;6.042;2023-12-22T05:40:42;100221.95;;;5.84;100.00
48404;BME280;34202;52.536;6.042;2023-12-22T05:45:42;100218.03;;;5.87;100.00
48404;BME280;34202;52.536;6.042;2023-12-22T05:50:43;100223.77;;;5.89;100.00
48404;BME280;34202;52.536;6.042;2023-12-22T05:55:43;100212.77;;;5.93;100.00
48404;BME280;34202;52.536;6.042;2023-12-22T06:00:43;100205.44;;;5.97;100.00
48404;BME280;34202;52.536;6.042;2023-12-22T06:05:44;100214.33;;;6.02;100.00
48404;BME280;34202;52.536;6.042;2023-12-22T06:10:44;100215.59;;;6.06;100.00
48404;BME280;34202;52.536;6.042;2023-12-22T06:15:44;100207.71;;;6.10;100.00
48404;BME280;34202;52.536;6.042;2023-12-22T06:20:45;100215.70;;;6.14;100.00
48404;BME280;34202;52.536;6.042;2023-12-22T06:25:45;100228.83;;;6.13;100.00
48404;BME280;34202;52.536;6.042;2023-12-22T06:30:46;100246.23;;;6.10;100.00
48404;BME280;34202;52.536;6.042;2023-12-22T06:35:47;100257.59;;;6.07;100.00
48404;BME280;34202;52.536;6.042;2023-12-22T06:40:48;100246.36;;;5.96;100.00
48404;BME280;34202;52.536;6.042;2023-12-22T06:45:48;100259.18;;;5.79;100.00
48404;BME280;34202;52.536;6.042;2023-12-22T06:50:49;100268.99;;;5.68;100.00
48404;BME280;34202;52.536;6.042;2023-12-22T06:55:49;100250.73;;;5.59;100.00
48404;BME280;34202;52.536;6.042;2023-12-22T07:03:00;100241.20;;;5.58;100.00
48404;BME280;34202;52.536;6.042;2023-12-22T07:08:00;100248.25;;;5.55;100.00
48404;BME280;34202;52.536;6.042;2023-12-22T07:13:00;100254.89;;;5.60;100.00
48404;BME280;34202;52.536;6.042;2023-12-22T07:18:01;100268.46;;;5.67;100.00
48404;BME280;34202;52.536;6.042;2023-12-22T07:23:01;100276.47;;;5.70;100.00
48404;BME280;34202;52.536;6.042;2023-12-22T07:28:02;100257.70;;;5.73;100.00
48404;BME280;34202;52.536;6.042;2023-12-22T07:33:02;100254.61;;;5.75;100.00
48404;BME280;34202;52.536;6.042;2023-12-22T07:38:03;100263.08;;;5.74;100.00
48404;BME280;34202;52.536;6.042;2023-12-22T07:43:03;100276.35;;;5.73;100.00
48404;BME280;34202;52.536;6.042;2023-12-22T07:48:04;100282.54;;;5.72;100.00
48404;BME280;34202;52.536;6.042;2023-12-22T07:53:05;100284.23;;;5.70;100.00
48404;BME280;34202;52.536;6.042;2023-12-22T07:58:05;100276.27;;;5.69;100.00
48404;BME280;34202;52.536;6.042;2023-12-22T08:03:05;100267.61;;;5.68;100.00
48404;BME280;34202;52.536;6.042;2023-12-22T08:08:06;100254.67;;;5.68;100.00
48404;BME280;34202;52.536;6.042;2023-12-22T08:13:06;100243.64;;;5.69;100.00
48404;BME280;34202;52.536;6.042;2023-12-22T08:18:06;100229.84;;;5.70;100.00
48404;BME280;34202;52.536;6.042;2023-12-22T08:23:07;100227.96;;;5.71;100.00
48404;BME280;34202;52.536;6.042;2023-12-22T08:28:07;100224.53;;;5.72;100.00
48404;BME280;34202;52.536;6.042;2023-12-22T08:33:09;100214.69;;;5.72;100.00
48404;BME280;34202;52.536;6.042;2023-12-22T08:38:09;100222.65;;;5.73;100.00
48404;BME280;34202;52.536;6.042;2023-12-22T08:43:09;100225.27;;;5.75;100.00
48404;BME280;34202;52.536;6.042;2023-12-22T08:48:10;100210.13;;;5.78;100.00
48404;BME280;34202;52.536;6.042;2023-12-22T08:53:11;100200.66;;;5.80;100.00
48404;BME280;34202;52.536;6.042;2023-12-22T08:58:12;100204.52;;;5.83;100.00
48404;BME280;34202;52.536;6.042;2023-12-22T09:03:12;100204.35;;;5.85;100.00
48404;BME280;34202;52.536;6.042;2023-12-22T09:08:13;100198.36;;;5.87;100.00
48404;BME280;34202;52.536;6.042;2023-12-22T09:13:13;100206.14;;;5.89;100.00
48404;BME280;34202;52.536;6.042;2023-12-22T09:18:13;100204.46;;;5.92;100.00
48404;BME280;34202;52.536;6.042;2023-12-22T09:23:14;100214.38;;;5.95;100.00
48404;BME280;34202;52.536;6.042;2023-12-22T09:32:46;100217.63;;;6.03;100.00
48404;BME280;34202;52.536;6.042;2023-12-22T09:37:46;100220.70;;;6.01;100.00
48404;BME280;34202;52.536;6.042;2023-12-22T09:42:47;100240.68;;;5.97;100.00
48404;BME280;34202;52.536;6.042;2023-12-22T09:47:50;100251.38;;;5.87;100.00
48404;BME280;34202;52.536;6.042;2023-12-22T09:52:51;100238.40;;;5.65;100.00
48404;BME280;34202;52.536;6.042;2023-12-22T09:57:52;100253.71;;;5.52;100.00
48404;BME280;34202;52.536;6.042;2023-12-22T10:02:54;100241.38;;;5.48;100.00
48404;BME280;34202;52.536;6.042;2023-12-22T10:07:55;100234.14;;;5.48;100.00
48404;BME280;34202;52.536;6.042;2023-12-22T10:12:58;100242.79;;;5.50;100.00
48404;BME280;34202;52.536;6.042;2023-12-22T10:17:59;100253.48;;;5.50;100.00
48404;BME280;34202;52.536;6.042;2023-12-22T10:22:59;100259.80;;;5.45;100.00
48404;BME280;34202;52.536;6.042;2023-12-22T10:28:00;100246.86;;;5.46;100.00
48404;BME280;34202;52.536;6.042;2023-12-22T10:33:04;100242.74;;;5.47;100.00
48404;BME280;34202;52.536;6.042;2023-12-22T10:38:04;100257.14;;;5.51;100.00
48404;BME280;34202;52.536;6.042;2023-12-22T10:43:05;100258.23;;;5.55;100.00
48404;BME280;34202;52.536;6.042;2023-12-22T10:48:06;100257.24;;;5.56;100.00
48404;BME280;34202;52.536;6.042;2023-12-22T10:53:07;100262.45;;;5.58;100.00
48404;BME280;34202;52.536;6.042;2023-12-22T10:58:08;100228.27;;;5.58;100.00
48404;BME280;34202;52.536;6.042;2023-12-22T11:03:10;100210.19;;;5.61;100.00
48404;BME280;34202;52.536;6.042;2023-12-22T11:08:13;100204.35;;;5.63;100.00
48404;BME280;34202;52.536;6.042;2023-12-22T11:13:14;100206.11;;;5.65;100.00
48404;BME280;34202;52.536;6.042;2023-12-22T11:18:17;100210.30;;;5.68;100.00
48404;BME280;34202;52.536;6.042;2023-12-22T11:23:19;100208.95;;;5.70;100.00
48404;BME280;34202;52.536;6.042;2023-12-22T11:28:20;100195.20;;;5.73;100.00
48404;BME280;34202;52.536;6.042;2023-12-22T11:33:25;100185.03;;;5.75;100.00
48404;BME280;34202;52.536;6.042;2023-12-22T11:38:27;100179.86;;;5.76;100.00
48404;BME280;34202;52.536;6.042;2023-12-22T11:43:28;100187.67;;;5.78;100.00
48404;BME280;34202;52.536;6.042;2023-12-22T11:48:29;100197.55;;;5.79;100.00
48404;BME280;34202;52.536;6.042;2023-12-22T11:53:30;100189.77;;;5.81;100.00
48404;BME280;34202;52.536;6.042;2023-12-22T11:58:46;100166.17;;;5.84;100.00
48404;BME280;34202;52.536;6.042;2023-12-22T12:03:59;100160.02;;;5.88;100.00
48404;BME280;34202;52.536;6.042;2023-12-22T12:09:06;100163.70;;;5.91;100.00
48404;BME280;34202;52.536;6.042;2023-12-22T12:14:09;100158.05;;;5.95;100.00
48404;BME280;34202;52.536;6.042;2023-12-22T12:19:11;100141.35;;;5.96;100.00
48404;BME280;34202;52.536;6.042;2023-12-22T12:24:12;100139.65;;;5.98;100.00
48404;BME280;34202;52.536;6.042;2023-12-22T12:29:12;100142.44;;;6.00;100.00
48404;BME280;34202;52.536;6.042;2023-12-22T12:34:14;100153.35;;;6.02;100.00
48404;BME280;34202;52.536;6.042;2023-12-22T12:39:17;100138.16;;;6.03;100.00
48404;BME280;34202;52.536;6.042;2023-12-22T12:44:22;100123.99;;;6.03;100.00
48404;BME280;34202;52.536;6.042;2023-12-22T12:49:23;100133.48;;;6.02;100.00
48404;BME280;34202;52.536;6.042;2023-12-22T12:54:27;100135.39;;;6.02;100.00
48404;BME280;34202;52.536;6.042;2023-12-22T12:59:28;100131.24;;;6.03;100.00
48404;BME280;34202;52.536;6.042;2023-12-22T13:04:38;100121.09;;;6.05;100.00
48404;BME280;34202;52.536;6.042;2023-12-22T13:09:39;100111.61;;;6.07;100.00
48404;BME280;34202;52.536;6.042;2023-12-22T13:14:39;100107.86;;;6.11;100.00
48404;BME280;34202;52.536;6.042;2023-12-22T13:19:40;100102.39;;;6.15;100.00
48404;BME280;34202;52.536;6.042;2023-12-22T13:24:40;100106.95;;;6.20;100.00
48404;BME280;34202;52.536;6.042;2023-12-22T13:29:45;100110.60;;;6.23;100.00
48404;BME280;34202;52.536;6.042;2023-12-22T13:34:49;100112.02;;;6.26;100.00
48404;BME280;34202;52.536;6.042;2023-12-22T13:39:50;100109.80;;;6.27;100.00
48404;BME280;34202;52.536;6.042;2023-12-22T13:44:51;100093.73;;;6.28;100.00
48404;BME280;34202;52.536;6.042;2023-12-22T13:49:53;100084.42;;;6.29;100.00
48404;BME280;34202;52.536;6.042;2023-12-22T13:54:53;100084.09;;;6.30;100.00
48404;BME280;34202;52.536;6.042;2023-12-22T13:59:56;100076.69;;;6.33;100.00
48404;BME280;34202;52.536;6.042;2023-12-22T14:04:57;100071.72;;;6.37;100.00
48404;BME280;34202;52.536;6.042;2023-12-22T14:09:57;100070.06;;;6.43;100.00
48404;BME280;34202;52.536;6.042;2023-12-22T14:15:08;100082.78;;;6.52;100.00
48404;BME280;34202;52.536;6.042;2023-12-22T14:20:08;100086.11;;;6.72;100.00
48404;BME280;34202;52.536;6.042;2023-12-22T14:25:10;100075.64;;;6.99;100.00
48404;BME280;34202;52.536;6.042;2023-12-22T14:30:11;100071.67;;;7.20;100.00
48404;BME280;34202;52.536;6.042;2023-12-22T14:35:11;100084.80;;;7.38;100.00
48404;BME280;34202;52.536;6.042;2023-12-22T14:40:12;100098.23;;;7.52;100.00
48404;BME280;34202;52.536;6.042;2023-12-22T14:45:12;100103.16;;;7.65;100.00
48404;BME280;34202;52.536;6.042;2023-12-22T14:50:13;100113.10;;;7.72;100.00
48404;BME280;34202;52.536;6.042;2023-12-22T14:55:13;100161.95;;;7.75;100.00
48404;BME280;34202;52.536;6.042;2023-12-22T15:00:15;100191.05;;;7.53;100.00
48404;BME280;34202;52.536;6.042;2023-12-22T15:05:16;100173.67;;;7.28;100.00
48404;BME280;34202;52.536;6.042;2023-12-22T15:10:17;100171.92;;;7.09;100.00
48404;BME280;34202;52.536;6.042;2023-12-22T15:15:18;100181.64;;;6.94;100.00
48404;BME280;34202;52.536;6.042;2023-12-22T15:20:18;100193.64;;;6.84;100.00
48404;BME280;34202;52.536;6.042;2023-12-22T15:25:18;100203.06;;;6.76;100.00
48404;BME280;34202;52.536;6.042;2023-12-22T15:30:21;100208.52;;;6.69;100.00
48404;BME280;34202;52.536;6.042;2023-12-22T15:35:21;100211.55;;;6.64;100.00
48404;BME280;34202;52.536;6.042;2023-12-22T15:40:22;100231.72;;;6.59;100.00
48404;BME280;34202;52.536;6.042;2023-12-22T15:45:22;100249.64;;;6.55;100.00
48404;BME280;34202;52.536;6.042;2023-12-22T15:50:22;100255.17;;;6.53;100.00
48404;BME280;34202;52.536;6.042;2023-12-22T15:55:23;100257.39;;;6.52;100.00
48404;BME280;34202;52.536;6.042;2023-12-22T16:00:24;100262.58;;;6.52;100.00
48404;BME280;34202;52.536;6.042;2023-12-22T16:05:25;100272.10;;;6.53;100.00
48404;BME280;34202;52.536;6.042;2023-12-22T16:10:28;100271.59;;;6.54;100.00
48404;BME280;34202;52.536;6.042;2023-12-22T16:15:28;100261.08;;;6.55;100.00
48404;BME280;34202;52.536;6.042;2023-12-22T16:20:28;100259.17;;;6.56;100.00
48404;BME280;34202;52.536;6.042;2023-12-22T16:25:29;100247.41;;;6.56;100.00
48404;BME280;34202;52.536;6.042;2023-12-22T16:30:30;100254.54;;;6.57;100.00
48404;BME280;34202;52.536;6.042;2023-12-22T16:35:30;100276.50;;;6.59;100.00
48404;BME280;34202;52.536;6.042;2023-12-22T16:40:31;100268.92;;;6.61;100.00
48404;BME280;34202;52.536;6.042;2023-12-22T16:45:31;100280.73;;;6.64;100.00
48404;BME280;34202;52.536;6.042;2023-12-22T16:50:32;100272.80;;;6.67;100.00
48404;BME280;34202;52.536;6.042;2023-12-22T16:55:32;100282.86;;;6.69;100.00
48404;BME280;34202;52.536;6.042;2023-12-22T17:00:32;100279.42;;;6.71;100.00
48404;BME280;34202;52.536;6.042;2023-12-22T17:05:33;100280.48;;;6.72;100.00
48404;BME280;34202;52.536;6.042;2023-12-22T17:10:33;100283.27;;;6.74;100.00
48404;BME280;34202;52.536;6.042;2023-12-22T17:15:34;100281.94;;;6.77;100.00
48404;BME280;34202;52.536;6.042;2023-12-22T17:20:34;100302.58;;;6.82;100.00
48404;BME280;34202;52.536;6.042;2023-12-22T17:25:35;100319.61;;;6.87;100.00
48404;BME280;34202;52.536;6.042;2023-12-22T17:30:35;100318.80;;;6.92;100.00
48404;BME280;34202;52.536;6.042;2023-12-22T17:35:36;100313.61;;;6.93;100.00
48404;BME280;34202;52.536;6.042;2023-12-22T17:40:37;100329.90;;;6.94;100.00
48404;BME280;34202;52.536;6.042;2023-12-22T17:45:37;100347.05;;;6.95;100.00
48404;BME280;34202;52.536;6.042;2023-12-22T17:50:37;100358.13;;;6.95;100.00
48404;BME280;34202;52.536;6.042;2023-12-22T17:55:38;100348.95;;;6.95;100.00
48404;BME280;34202;52.536;6.042;2023-12-22T18:00:38;100364.70;;;6.95;100.00
48404;BME280;34202;52.536;6.042;2023-12-22T18:08:49;100384.80;;;6.98;100.00
48404;BME280;34202;52.536;6.042;2023-12-22T18:13:49;100409.11;;;6.93;100.00
48404;BME280;34202;52.536;6.042;2023-12-22T18:18:54;100418.40;;;6.90;100.00
48404;BME280;34202;52.536;6.042;2023-12-22T18:23:55;100425.20;;;6.81;100.00
48404;BME280;34202;52.536;6.042;2023-12-22T18:28:55;100428.55;;;6.74;100.00
48404;BME280;34202;52.536;6.042;2023-12-22T18:33:56;100435.36;;;6.68;100.00
48404;BME280;34202;52.536;6.042;2023-12-22T18:38:56;100443.92;;;6.63;100.00
48404;BME280;34202;52.536;6.042;2023-12-22T18:43:58;100442.30;;;6.58;100.00
48404;BME280;34202;52.536;6.042;2023-12-22T18:48:58;100448.27;;;6.54;100.00
48404;BME280;34202;52.536;6.042;2023-12-22T18:53:59;100468.47;;;6.51;100.00
48404;BME280;34202;52.536;6.042;2023-12-22T18:58:59;100484.70;;;6.50;100.00
48404;BME280;34202;52.536;6.042;2023-12-22T19:03:59;100492.80;;;6.48;100.00
48404;BME280;34202;52.536;6.042;2023-12-22T19:09:00;100493.38;;;6.43;100.00
48404;BME280;34202;52.536;6.042;2023-12-22T19:14:00;100498.63;;;6.36;100.00
48404;BME280;34202;52.536;6.042;2023-12-22T19:19:00;100501.80;;;6.30;100.00
48404;BME280;34202;52.536;6.042;2023-12-22T19:24:01;100499.13;;;6.26;100.00
48404;BME280;34202;52.536;6.042;2023-12-22T19:29:01;100498.53;;;6.22;100.00
48404;BME280;34202;52.536;6.042;2023-12-22T19:34:02;100510.77;;;6.20;100.00
48404;BME280;34202;52.536;6.042;2023-12-22T19:39:03;100518.33;;;6.18;100.00
48404;BME280;34202;52.536;6.042;2023-12-22T19:44:04;100526.27;;;6.17;100.00
48404;BME280;34202;52.536;6.042;2023-12-22T19:49:04;100536.66;;;6.19;100.00
48404;BME280;34202;52.536;6.042;2023-12-22T19:54:04;100542.54;;;6.19;100.00
48404;BME280;34202;52.536;6.042;2023-12-22T19:59:05;100551.04;;;6.20;100.00
48404;BME280;34202;52.536;6.042;2023-12-22T20:04:07;100554.85;;;6.22;100.00
48404;BME280;34202;52.536;6.042;2023-12-22T20:09:07;100551.95;;;6.23;100.00
48404;BME280;34202;52.536;6.042;2023-12-22T20:14:08;100561.48;;;6.25;100.00
48404;BME280;34202;52.536;6.042;2023-12-22T20:19:08;100573.25;;;6.25;100.00
48404;BME280;34202;52.536;6.042;2023-12-22T20:24:09;100580.50;;;6.25;100.00
48404;BME280;34202;52.536;6.042;2023-12-22T20:29:09;100601.96;;;6.27;100.00
48404;BME280;34202;52.536;6.042;2023-12-22T20:34:09;100603.56;;;6.28;100.00
48404;BME280;34202;52.536;6.042;2023-12-22T20:39:10;100605.11;;;6.28;100.00
48404;BME280;34202;52.536;6.042;2023-12-22T20:44:10;100616.48;;;6.27;100.00
48404;BME280;34202;52.536;6.042;2023-12-22T20:49:11;100624.97;;;6.27;100.00
48404;BME280;34202;52.536;6.042;2023-12-22T20:54:15;100633.63;;;6.28;100.00
48404;BME280;34202;52.536;6.042;2023-12-22T20:59:16;100650.58;;;6.29;100.00
48404;BME280;34202;52.536;6.042;2023-12-22T21:04:17;100661.99;;;6.29;100.00
48404;BME280;34202;52.536;6.042;2023-12-22T21:09:17;100681.73;;;6.31;100.00
48404;BME280;34202;52.536;6.042;2023-12-22T21:14:17;100696.79;;;6.31;100.00
48404;BME280;34202;52.536;6.042;2023-12-22T21:19:18;100709.31;;;6.28;100.00
48404;BME280;34202;52.536;6.042;2023-12-22T21:24:19;100710.96;;;6.24;100.00
48404;BME280;34202;52.536;6.042;2023-12-22T21:29:19;100717.79;;;6.20;100.00
48404;BME280;34202;52.536;6.042;2023-12-22T21:34:21;100716.66;;;6.16;100.00
48404;BME280;34202;52.536;6.042;2023-12-22T21:39:21;100725.92;;;6.13;100.00
48404;BME280;34202;52.536;6.042;2023-12-22T21:44:23;100734.88;;;6.11;100.00
48404;BME280;34202;52.536;6.042;2023-12-22T21:49:23;100739.20;;;6.11;100.00
48404;BME280;34202;52.536;6.042;2023-12-22T21:54:24;100742.81;;;6.11;100.00
48404;BME280;34202;52.536;6.042;2023-12-22T21:59:25;100753.36;;;6.11;100.00
48404;BME280;34202;52.536;6.042;2023-12-22T22:04:26;100769.29;;;6.13;100.00
48404;BME280;34202;52.536;6.042;2023-12-22T22:09:28;100771.23;;;6.15;100.00
48404;BME280;34202;52.536;6.042;2023-12-22T22:14:29;100765.20;;;6.15;100.00
48404;BME280;34202;52.536;6.042;2023-12-22T22:19:29;100770.52;;;6.14;100.00
48404;BME280;34202;52.536;6.042;2023-12-22T22:24:29;100786.89;;;6.11;100.00
48404;BME280;34202;52.536;6.042;2023-12-22T22:29:30;100800.11;;;6.08;100.00
48404;BME280;34202;52.536;6.042;2023-12-22T22:34:30;100803.13;;;6.05;100.00
48404;BME280;34202;52.536;6.042;2023-12-22T22:39:33;100807.04;;;6.01;100.00
48404;BME280;34202;52.536;6.042;2023-12-22T22:44:39;100815.05;;;5.97;100.00
48404;BME280;34202;52.536;6.042;2023-12-22T22:49:43;100822.50;;;5.92;100.00
48404;BME280;34202;52.536;6.042;2023-12-22T22:54:44;100824.01;;;5.91;100.00
48404;BME280;34202;52.536;6.042;2023-12-22T22:59:44;100826.27;;;5.91;100.00
48404;BME280;34202;52.536;6.042;2023-12-22T23:04:44;100825.45;;;5.93;100.00
48404;BME280;34202;52.536;6.042;2023-12-22T23:09:45;100826.92;;;5.96;100.00
48404;BME280;34202;52.536;6.042;2023-12-22T23:14:45;100832.69;;;5.98;100.00
48404;BME280;34202;52.536;6.042;2023-12-22T23:19:45;100829.79;;;6.00;100.00
48404;BME280;34202;52.536;6.042;2023-12-22T23:24:46;100843.63;;;6.00;100.00
48404;BME280;34202;52.536;6.042;2023-12-22T23:29:46;100850.92;;;6.02;100.00
48404;BME280;34202;52.536;6.042;2023-12-22T23:34:46;100849.37;;;6.02;100.00
48404;BME280;34202;52.536;6.042;2023-12-22T23:39:47;100862.66;;;6.02;100.00
48404;BME280;34202;52.536;6.042;2023-12-22T23:44:47;100864.37;;;6.00;100.00
48404;BME280;34202;52.536;6.042;2023-12-22T23:49:48;100863.16;;;6.00;100.00
48404;BME280;34202;52.536;6.042;2023-12-22T23:54:48;100866.61;;;6.00;100.00
48404;BME280;34202;52.536;6.042;2023-12-22T23:59:49;100880.90;;;5.99;100.00
